To NAV CANADA Home Page Login to a new session Search on AWWS site Feedback and Comments Disclaimer Vers la page française équivalente Tips FAQ What's new on the site To the Forecasts and Observations / NOTAM section To "File a Flight Plan" website Publications and other links Update of the User's profile FIC Telephone Numbers My Weather Data Folder Route Weather Data Regional Weather Data Local Weather Data To the Forecasts and Observations / NOTAM section
Request Generated 05/04/2016 at 04:05:47 UTC . Weather information available at that time is displayed.

METAR/TAF

CARTWRIGHT/NL    

METAR CWCA 040400Z 18004KT 130V210 15SM FEW025 FEW070 SCT200 02/M01
A2994 RMK SC1AC1CI2 SLP142=
METAR CWCA 040300Z 00000KT 15SM FEW025 BKN070 01/00 A2996 RMK SC2AC5
SLP146=
METAR CWCA 040200Z 34002KT 15SM FEW025 BKN070 BKN200 01/M00 A2997 RMK
SC2AC4CI1 SLP150=

TAF CYCA 040138Z 0402/0414 ADVISORY OFFSITE 34005KT P6SM FEW030
BKN070 BKN200
BECMG 0403/0405 20006KT
RMK NXT FCST BY 040800Z=
Your time UTC time
Weather data provided by Environment Canada and NAV CANADA